Time;durP1;ratioP1;P1;durP2;ratioP2;P2;SDS_P1;SDS_P2;PMS_P1;PMS_P2;Temp;Humidity;BMP_temperature;BMP_pressure;BME280_temperature;BME280_humidity;BME280_pressure;Samples;Min_cycle;Max_cycle;Signal;HPM_P1;HPM_P2
2023/08/24 00:01:28;;;;;;;19.00;17.90;;;18.40;99.90;;;;;;5018115;28;20193;-54
2023/08/24 00:03:54;;;;;;;19.63;18.43;;;18.30;99.90;;;;;;5018777;28;20187;-56
2023/08/24 00:06:19;;;;;;;19.73;18.40;;;18.20;99.90;;;;;;5018254;28;20197;-50
2023/08/24 00:08:45;;;;;;;18.27;17.17;;;18.20;99.90;;;;;;5020617;28;20190;-52
2023/08/24 00:11:14;;;;;;;19.77;18.47;;;18.10;99.90;;;;;;5018215;28;20193;-56
2023/08/24 00:13:49;;;;;;;20.47;19.17;;;18.10;99.90;;;;;;5019856;28;20398;-54
2023/08/24 00:16:19;;;;;;;19.13;18.03;;;18.10;99.90;;;;;;5020244;28;20479;-53
2023/08/24 00:18:44;;;;;;;19.93;18.43;;;18.10;99.90;;;;;;5020374;28;20782;-56
2023/08/24 00:21:11;;;;;;;19.57;18.37;;;18.00;99.90;;;;;;5019089;28;20492;-57
2023/08/24 00:23:37;;;;;;;20.40;18.90;;;18.00;99.90;;;;;;5019488;28;20321;-55
2023/08/24 00:26:03;;;;;;;19.90;18.63;;;18.00;99.90;;;;;;5019767;28;20519;-56
2023/08/24 00:28:28;;;;;;;20.33;19.03;;;17.90;99.90;;;;;;5020365;28;20193;-52
2023/08/24 00:30:54;;;;;;;19.97;18.77;;;17.90;99.90;;;;;;5018661;28;20193;-55
2023/08/24 00:33:19;;;;;;;20.50;19.00;;;17.90;99.90;;;;;;5020050;28;20206;-56
2023/08/24 00:35:45;;;;;;;21.90;20.27;;;17.80;99.90;;;;;;5019616;28;20761;-57
2023/08/24 00:38:10;;;;;;;19.73;18.60;;;17.80;99.90;;;;;;5020227;28;20193;-56
2023/08/24 00:40:36;;;;;;;20.50;19.20;;;17.80;99.90;;;;;;5020508;28;20178;-56
2023/08/24 00:43:02;;;;;;;19.70;18.50;;;17.70;99.90;;;;;;5018577;28;20938;-54
2023/08/24 00:45:29;;;;;;;20.73;19.33;;;17.70;99.90;;;;;;5019065;28;20186;-59
2023/08/24 00:47:55;;;;;;;21.00;19.67;;;17.70;99.90;;;;;;5020041;28;20210;-55
2023/08/24 00:50:21;;;;;;;20.07;18.80;;;17.60;99.90;;;;;;5020392;28;20554;-53
2023/08/24 00:52:48;;;;;;;20.50;19.20;;;17.60;99.90;;;;;;5018760;28;20194;-45
2023/08/24 00:55:15;;;;;;;21.00;19.60;;;17.60;99.90;;;;;;5019574;28;20571;-55
2023/08/24 00:57:41;;;;;;;20.50;19.20;;;17.50;99.90;;;;;;5020162;28;20421;-55
2023/08/24 01:00:11;;;;;;;21.00;19.60;;;17.50;99.90;;;;;;5020278;28;20533;-52
2023/08/24 01:02:39;;;;;;;20.93;19.63;;;17.50;99.90;;;;;;5018425;28;20935;-54
2023/08/24 01:05:06;;;;;;;21.37;20.07;;;17.40;99.90;;;;;;5019192;28;21533;-55
2023/08/24 01:07:34;;;;;;;20.93;19.53;;;17.40;99.90;;;;;;5020174;28;20417;-55
2023/08/24 01:10:01;;;;;;;20.87;19.57;;;17.30;99.90;;;;;;5020872;28;20430;-54
2023/08/24 01:12:47;;;;;;;22.50;21.00;;;17.30;99.90;;;;;;5021395;28;20425;-56
2023/08/24 01:15:18;;;;;;;21.00;19.70;;;17.20;99.90;;;;;;5021462;28;20440;-55
2023/08/24 01:17:45;;;;;;;21.00;19.63;;;17.20;99.90;;;;;;5021744;28;20787;-53
2023/08/24 01:20:12;;;;;;;21.10;19.60;;;17.20;99.90;;;;;;5022940;28;20440;-55
2023/08/24 01:23:17;;;;;;;20.93;19.53;;;17.20;99.90;;;;;;5020958;28;20441;-56
2023/08/24 01:26:03;;;;;;;20.87;19.47;;;17.20;99.90;;;;;;5023273;28;20428;-55
2023/08/24 01:28:30;;;;;;;21.77;20.10;;;17.10;99.90;;;;;;5023067;28;20405;-50
2023/08/24 01:30:56;;;;;;;21.80;20.20;;;17.10;99.90;;;;;;5022449;28;20429;-55
2023/08/24 01:33:21;;;;;;;21.40;19.93;;;17.10;99.90;;;;;;5022823;28;21028;-47
2023/08/24 01:35:47;;;;;;;22.67;21.10;;;17.10;99.90;;;;;;5021360;28;20648;-56
2023/08/24 01:38:14;;;;;;;20.80;19.50;;;17.10;99.90;;;;;;5022495;28;20216;-55
2023/08/24 01:41:02;;;;;;;22.50;21.00;;;17.00;99.90;;;;;;5023120;28;20182;-53
2023/08/24 01:43:34;;;;;;;21.30;19.70;;;17.00;99.90;;;;;;5022546;28;21006;-46
2023/08/24 01:46:02;;;;;;;21.90;20.40;;;16.90;99.90;;;;;;5020816;28;20856;-50
2023/08/24 01:48:29;;;;;;;21.07;19.70;;;16.90;99.90;;;;;;5023073;28;20813;-53
2023/08/24 01:51:00;;;;;;;20.70;19.40;;;16.90;99.90;;;;;;5022544;28;20502;-54
2023/08/24 01:53:27;;;;;;;21.63;20.23;;;16.90;99.90;;;;;;5022055;28;20492;-52
2023/08/24 01:55:53;;;;;;;22.50;20.60;;;16.80;99.90;;;;;;5022742;28;20451;-52
2023/08/24 01:58:20;;;;;;;23.80;22.10;;;16.80;99.90;;;;;;5022403;28;20433;-52
2023/08/24 02:00:45;;;;;;;23.30;21.60;;;16.80;99.90;;;;;;5022185;28;20229;-52
2023/08/24 02:03:11;;;;;;;22.57;21.10;;;16.80;99.90;;;;;;5022039;28;20449;-54
2023/08/24 02:05:38;;;;;;;22.93;21.23;;;16.70;99.90;;;;;;5022621;28;20205;-55
2023/08/24 02:08:04;;;;;;;21.57;20.17;;;16.70;99.90;;;;;;5022532;28;20190;-54
2023/08/24 02:10:29;;;;;;;23.20;21.50;;;16.70;99.90;;;;;;5022238;28;20486;-50
2023/08/24 02:12:55;;;;;;;22.40;20.90;;;16.70;99.90;;;;;;5021393;28;20186;-55
2023/08/24 02:15:21;;;;;;;23.03;21.27;;;16.60;99.90;;;;;;5022687;28;20191;-54
2023/08/24 02:17:46;;;;;;;22.43;20.93;;;16.60;99.90;;;;;;5021070;28;20252;-51
2023/08/24 02:20:12;;;;;;;22.43;20.93;;;16.60;99.90;;;;;;5022597;28;20218;-52
2023/08/24 02:22:38;;;;;;;21.20;19.90;;;16.60;99.90;;;;;;5019279;28;20195;-56
2023/08/24 02:25:05;;;;;;;22.33;20.93;;;16.60;99.90;;;;;;5021271;28;20265;-52
2023/08/24 02:27:33;;;;;;;22.63;21.07;;;16.60;99.90;;;;;;5021848;28;20433;-54
2023/08/24 02:29:59;;;;;;;22.27;20.90;;;16.50;99.90;;;;;;5021887;28;20444;-54
2023/08/24 02:32:26;;;;;;;22.83;21.13;;;16.50;99.90;;;;;;5019151;28;20819;-53
2023/08/24 02:34:51;;;;;;;21.83;20.50;;;16.50;99.90;;;;;;5021637;28;20751;-54
2023/08/24 02:37:17;;;;;;;23.80;22.00;;;16.50;99.90;;;;;;5022276;28;20447;-55
2023/08/24 02:39:42;;;;;;;22.37;20.87;;;16.50;99.90;;;;;;5022184;28;20645;-54
2023/08/24 02:42:08;;;;;;;22.90;21.13;;;16.40;99.90;;;;;;5021395;28;20202;-54
2023/08/24 02:44:34;;;;;;;23.33;21.80;;;16.40;99.90;;;;;;5021967;28;20183;-53
2023/08/24 02:47:01;;;;;;;23.93;22.03;;;16.30;99.90;;;;;;5022172;28;21750;-53
2023/08/24 02:49:28;;;;;;;22.27;20.70;;;16.40;99.90;;;;;;5021502;28;20183;-47
2023/08/24 02:51:53;;;;;;;23.23;21.63;;;16.30;99.90;;;;;;5018934;28;20429;-53
2023/08/24 02:54:19;;;;;;;22.50;20.90;;;16.30;99.90;;;;;;5020620;28;20468;-52
2023/08/24 02:56:45;;;;;;;22.83;21.33;;;16.20;99.90;;;;;;5021917;28;20877;-54
2023/08/24 02:59:12;;;;;;;22.87;21.17;;;16.20;99.90;;;;;;5021086;28;20437;-56
2023/08/24 03:01:40;;;;;;;22.90;21.27;;;16.20;99.90;;;;;;5020086;28;21234;-56
2023/08/24 03:04:06;;;;;;;23.80;22.20;;;16.20;99.90;;;;;;5020260;28;21322;-55
2023/08/24 03:06:32;;;;;;;22.40;20.90;;;16.20;99.90;;;;;;5021457;28;20416;-56
2023/08/24 03:08:59;;;;;;;23.83;22.13;;;16.20;99.90;;;;;;5013732;28;20193;-55
2023/08/24 03:11:25;;;;;;;22.60;20.90;;;16.20;99.90;;;;;;5019555;28;20194;-56
2023/08/24 03:13:50;;;;;;;24.67;22.90;;;16.20;99.90;;;;;;5020364;28;20997;-55
2023/08/24 03:16:16;;;;;;;22.80;21.30;;;16.20;99.90;;;;;;5019762;28;20210;-46
2023/08/24 03:18:41;;;;;;;22.83;21.33;;;16.20;99.90;;;;;;5020572;28;20232;-52
2023/08/24 03:21:07;;;;;;;23.70;22.00;;;16.10;99.90;;;;;;5018948;28;20183;-54
2023/08/24 03:23:33;;;;;;;23.77;22.17;;;16.10;99.90;;;;;;5018035;28;20241;-52
2023/08/24 03:25:58;;;;;;;24.50;22.80;;;16.00;99.90;;;;;;5019923;28;20190;-55
2023/08/24 03:28:24;;;;;;;22.43;20.93;;;16.00;99.90;;;;;;5019495;28;20190;-53
2023/08/24 03:30:55;;;;;;;23.37;21.77;;;16.00;99.90;;;;;;5019008;28;20191;-53
2023/08/24 03:33:21;;;;;;;23.97;22.27;;;15.90;99.90;;;;;;5019233;28;20206;-47
2023/08/24 03:35:46;;;;;;;23.37;21.77;;;15.90;99.90;;;;;;5019687;28;20451;-55
2023/08/24 03:38:13;;;;;;;23.90;22.20;;;15.90;99.90;;;;;;5020516;28;20448;-55
2023/08/24 03:40:38;;;;;;;23.77;22.20;;;15.90;99.90;;;;;;5018363;28;20183;-54
2023/08/24 03:43:04;;;;;;;24.90;23.07;;;15.90;99.90;;;;;;5019634;28;20998;-51
2023/08/24 03:45:29;;;;;;;23.83;22.17;;;15.80;99.90;;;;;;5020867;28;20190;-54
2023/08/24 03:47:55;;;;;;;24.13;22.33;;;15.80;99.90;;;;;;5019719;28;20237;-50
2023/08/24 03:50:22;;;;;;;24.07;22.37;;;15.70;99.90;;;;;;5018229;28;20193;-46
2023/08/24 03:52:50;;;;;;;24.70;22.90;;;15.70;99.90;;;;;;5018951;28;20429;-50
2023/08/24 03:55:16;;;;;;;23.80;22.20;;;15.70;99.90;;;;;;5019701;28;20437;-54
2023/08/24 03:57:41;;;;;;;23.20;21.67;;;15.70;99.90;;;;;;5019742;28;20981;-55
2023/08/24 04:00:11;;;;;;;23.73;22.13;;;15.60;99.90;;;;;;5018506;28;20442;-55
2023/08/24 04:02:41;;;;;;;23.60;21.83;;;15.70;99.90;;;;;;5016932;28;20190;-53
2023/08/24 04:05:07;;;;;;;24.27;22.33;;;15.70;99.90;;;;;;5015955;28;20992;-55
2023/08/24 04:07:36;;;;;;;23.50;21.87;;;15.70;99.90;;;;;;5020231;28;20528;-52
2023/08/24 04:10:03;;;;;;;23.97;22.37;;;15.70;99.90;;;;;;5020230;28;20209;-55
2023/08/24 04:12:28;;;;;;;23.43;21.83;;;15.70;99.90;;;;;;5019324;28;20437;-54
2023/08/24 04:14:56;;;;;;;23.07;21.47;;;15.70;99.90;;;;;;5019980;28;20495;-54
2023/08/24 04:17:21;;;;;;;24.00;22.30;;;15.70;99.90;;;;;;5020434;28;20189;-51
2023/08/24 04:19:47;;;;;;;22.50;20.97;;;15.70;99.90;;;;;;5018707;28;21025;-53
2023/08/24 04:22:12;;;;;;;22.80;21.20;;;15.70;99.90;;;;;;5019162;28;20182;-54
2023/08/24 04:24:38;;;;;;;23.07;21.43;;;15.70;99.90;;;;;;5019127;28;20238;-55
2023/08/24 04:27:04;;;;;;;23.47;21.87;;;15.70;99.90;;;;;;5020588;28;20182;-51
2023/08/24 04:29:31;;;;;;;23.40;21.67;;;15.80;99.90;;;;;;5019231;28;20360;-54
2023/08/24 04:31:56;;;;;;;26.47;24.67;;;15.80;99.90;;;;;;5019023;28;20186;-52
2023/08/24 04:34:22;;;;;;;24.27;22.40;;;15.80;99.90;;;;;;5019982;28;20971;-53
2023/08/24 04:36:47;;;;;;;24.20;22.47;;;15.70;99.90;;;;;;5019739;28;20182;-40
2023/08/24 04:39:13;;;;;;;22.77;21.27;;;15.70;99.90;;;;;;5020185;28;20979;-41
2023/08/24 04:41:39;;;;;;;23.80;22.10;;;15.70;99.90;;;;;;5016391;28;20217;-41
2023/08/24 04:44:04;;;;;;;23.47;21.87;;;15.70;99.90;;;;;;5012340;28;20179;-40
2023/08/24 04:46:30;;;;;;;24.03;22.33;;;15.70;99.90;;;;;;5021926;28;20186;-40
2023/08/24 04:48:56;;;;;;;23.00;21.30;;;15.70;99.90;;;;;;5023000;28;20228;-40
2023/08/24 04:51:21;;;;;;;24.37;22.53;;;15.70;99.90;;;;;;5022317;28;20202;-39
2023/08/24 04:53:47;;;;;;;23.47;21.83;;;15.70;99.90;;;;;;5022801;28;20214;-38
2023/08/24 04:56:12;;;;;;;22.80;21.30;;;15.80;99.90;;;;;;5023803;28;20269;-40
2023/08/24 04:58:38;;;;;;;25.43;23.27;;;15.80;99.90;;;;;;5024205;28;20193;-39
2023/08/24 05:01:03;;;;;;;23.57;21.87;;;15.90;99.90;;;;;;5022944;28;20192;-41
2023/08/24 05:03:29;;;;;;;23.90;22.20;;;15.90;99.90;;;;;;5022252;28;20265;-40
2023/08/24 05:05:55;;;;;;;23.13;21.43;;;16.00;99.90;;;;;;5022024;28;20550;-40
2023/08/24 05:08:20;;;;;;;23.77;22.10;;;16.00;99.90;;;;;;5021373;28;20195;-39
2023/08/24 05:10:46;;;;;;;23.27;21.60;;;16.00;99.90;;;;;;5022726;28;20198;-40
2023/08/24 05:13:12;;;;;;;23.73;21.73;;;16.10;99.90;;;;;;5023585;28;20292;-40
2023/08/24 05:15:37;;;;;;;24.13;22.43;;;16.10;99.90;;;;;;5014142;28;20445;-40
2023/08/24 05:18:03;;;;;;;22.87;21.27;;;16.10;99.90;;;;;;5022984;28;20632;-42
2023/08/24 05:20:29;;;;;;;24.67;22.70;;;16.10;99.90;;;;;;5021353;28;20285;-40
2023/08/24 05:22:55;;;;;;;24.03;22.43;;;16.10;99.90;;;;;;5022776;28;20492;-40
2023/08/24 05:25:21;;;;;;;23.27;21.23;;;16.20;99.90;;;;;;5022106;28;20186;-40
2023/08/24 05:27:47;;;;;;;25.50;22.90;;;16.20;99.90;;;;;;5023551;28;20190;-39
2023/08/24 05:30:13;;;;;;;23.10;21.50;;;16.30;99.90;;;;;;5023228;28;20467;-41
2023/08/24 05:32:38;;;;;;;22.33;20.83;;;16.40;99.90;;;;;;5023002;28;20679;-39
2023/08/24 05:35:05;;;;;;;24.00;22.30;;;16.50;99.90;;;;;;5022993;28;20214;-39
2023/08/24 05:37:31;;;;;;;23.17;21.60;;;16.50;99.90;;;;;;5023240;28;20206;-38
2023/08/24 05:39:56;;;;;;;21.40;20.00;;;16.60;99.90;;;;;;5023242;28;20479;-40
2023/08/24 05:42:22;;;;;;;23.87;22.00;;;16.60;99.90;;;;;;5022579;28;20214;-42
2023/08/24 05:44:47;;;;;;;23.30;21.70;;;16.70;99.90;;;;;;5023161;28;20190;-40
2023/08/24 05:47:13;;;;;;;22.47;20.77;;;16.80;99.90;;;;;;5023205;28;20517;-39
2023/08/24 05:49:38;;;;;;;21.87;20.37;;;16.80;99.90;;;;;;5023387;28;20199;-40
2023/08/24 05:52:04;;;;;;;22.30;20.90;;;16.80;99.90;;;;;;5022549;28;20194;-40
2023/08/24 05:54:30;;;;;;;22.30;20.80;;;16.90;99.90;;;;;;5019972;28;20210;-40
2023/08/24 05:57:00;;;;;;;21.40;20.07;;;16.90;99.90;;;;;;5022535;28;20713;-40
2023/08/24 05:59:25;;;;;;;21.67;20.27;;;17.00;99.90;;;;;;5022971;28;20204;-40
2023/08/24 06:01:51;;;;;;;20.90;19.53;;;17.10;99.90;;;;;;5023057;28;20436;-39
2023/08/24 06:04:17;;;;;;;21.30;19.90;;;17.10;99.90;;;;;;5022402;28;20221;-40
2023/08/24 06:06:42;;;;;;;20.67;19.27;;;17.20;99.90;;;;;;5022528;28;20292;-40
2023/08/24 06:09:08;;;;;;;21.10;19.77;;;17.30;99.90;;;;;;5023081;28;20194;-39
2023/08/24 06:11:33;;;;;;;21.60;20.23;;;17.40;99.90;;;;;;5022599;28;20190;-40
2023/08/24 06:13:59;;;;;;;22.60;21.20;;;17.50;99.90;;;;;;5021878;28;20221;-39
2023/08/24 06:16:24;;;;;;;21.73;20.33;;;17.60;99.90;;;;;;5022736;28;20218;-41
2023/08/24 06:18:50;;;;;;;22.30;20.87;;;17.60;99.90;;;;;;5022463;28;20232;-40
2023/08/24 06:21:16;;;;;;;21.10;19.80;;;17.70;99.90;;;;;;5022713;28;20190;-40
2023/08/24 06:23:44;;;;;;;20.70;19.30;;;17.70;99.90;;;;;;5022483;28;20472;-40
2023/08/24 06:26:09;;;;;;;21.60;20.20;;;17.80;99.90;;;;;;5022582;28;20532;-42
2023/08/24 06:28:35;;;;;;;20.30;19.10;;;17.90;99.90;;;;;;5022342;28;20428;-44
2023/08/24 06:31:01;;;;;;;21.63;20.23;;;18.00;99.90;;;;;;5021879;28;20225;-41
2023/08/24 06:33:34;;;;;;;20.17;18.87;;;18.10;99.90;;;;;;5021923;28;21113;-39
2023/08/24 06:36:00;;;;;;;21.23;19.83;;;18.20;99.90;;;;;;5022084;28;20465;-40
2023/08/24 06:38:26;;;;;;;20.13;18.93;;;18.20;99.90;;;;;;5021995;28;20435;-40
2023/08/24 06:40:52;;;;;;;20.10;18.90;;;18.30;99.90;;;;;;5022319;28;20907;-40
2023/08/24 06:43:17;;;;;;;20.30;19.10;;;18.40;99.90;;;;;;5020324;28;20190;-40
2023/08/24 06:45:46;;;;;;;20.80;19.57;;;18.60;99.90;;;;;;5022163;28;20265;-39
2023/08/24 06:48:12;;;;;;;20.10;18.90;;;18.70;99.90;;;;;;5022245;28;20212;-40
2023/08/24 06:50:37;;;;;;;21.00;19.50;;;18.70;99.90;;;;;;5021825;28;20417;-40
2023/08/24 06:53:04;;;;;;;20.97;19.60;;;18.80;99.90;;;;;;5021529;28;20205;-40
2023/08/24 06:55:30;;;;;;;20.97;19.57;;;18.90;99.90;;;;;;5021722;28;20191;-40
2023/08/24 06:57:56;;;;;;;19.47;18.37;;;19.00;99.90;;;;;;5021954;28;20434;-39
2023/08/24 07:00:22;;;;;;;19.37;18.17;;;19.00;99.90;;;;;;5021917;28;20186;-40
2023/08/24 07:02:51;;;;;;;20.00;18.60;;;19.00;99.90;;;;;;5021494;28;21261;-40
2023/08/24 07:05:20;;;;;;;21.07;19.57;;;19.10;99.90;;;;;;5021839;28;20444;-40
2023/08/24 07:07:47;;;;;;;19.67;18.47;;;19.20;99.90;;;;;;5021028;28;20490;-41
2023/08/24 07:10:13;;;;;;;19.37;18.23;;;19.30;99.90;;;;;;5021019;28;20448;-42
2023/08/24 07:12:40;;;;;;;20.07;18.87;;;19.40;99.90;;;;;;5021585;28;20441;-41
2023/08/24 07:15:07;;;;;;;19.40;18.20;;;19.50;99.90;;;;;;5020589;28;20464;-40
2023/08/24 07:17:33;;;;;;;19.30;18.10;;;19.70;99.90;;;;;;5020733;28;20727;-42
2023/08/24 07:19:58;;;;;;;19.10;17.80;;;19.80;99.90;;;;;;5021727;28;20479;-40
2023/08/24 07:22:26;;;;;;;19.30;18.10;;;19.90;99.90;;;;;;5020724;28;20194;-40
2023/08/24 07:24:52;;;;;;;19.40;18.17;;;20.00;99.90;;;;;;5021449;28;20867;-41
2023/08/24 07:27:18;;;;;;;19.77;18.57;;;20.20;99.90;;;;;;5021344;28;20431;-43
2023/08/24 07:29:44;;;;;;;18.47;17.37;;;20.30;99.90;;;;;;5021345;28;20425;-39
2023/08/24 07:32:09;;;;;;;18.20;17.00;;;20.50;99.90;;;;;;5019892;28;20852;-42
2023/08/24 07:34:35;;;;;;;19.37;18.20;;;20.70;99.90;;;;;;5018317;28;20645;-43
2023/08/24 07:37:01;;;;;;;19.50;18.40;;;20.80;99.90;;;;;;5020520;28;20451;-40
2023/08/24 07:39:27;;;;;;;18.50;17.50;;;20.90;99.90;;;;;;5021198;28;20540;-41
2023/08/24 07:41:53;;;;;;;18.23;17.23;;;21.00;99.90;;;;;;5020201;28;20479;-40
2023/08/24 07:44:18;;;;;;;18.70;17.60;;;21.20;99.90;;;;;;5020573;28;20186;-54
2023/08/24 07:46:44;;;;;;;17.93;16.93;;;21.30;99.90;;;;;;5020276;28;20193;-55
2023/08/24 07:49:10;;;;;;;18.43;17.33;;;21.50;99.90;;;;;;5020314;28;20193;-57
2023/08/24 07:51:36;;;;;;;18.30;17.20;;;21.60;99.90;;;;;;5020102;28;20425;-55
2023/08/24 07:54:04;;;;;;;18.27;17.27;;;21.70;99.90;;;;;;5017735;28;20217;-53
2023/08/24 07:56:30;;;;;;;17.60;16.20;;;21.80;99.90;;;;;;5020007;28;20479;-51
2023/08/24 07:58:56;;;;;;;17.90;16.47;;;22.00;99.90;;;;;;5020463;28;20429;-43
2023/08/24 08:01:21;;;;;;;17.53;16.40;;;22.20;99.90;;;;;;5019228;28;20214;-44
2023/08/24 08:03:47;;;;;;;17.60;16.50;;;22.40;99.90;;;;;;5019805;28;20194;-43
2023/08/24 08:06:13;;;;;;;17.00;16.10;;;22.60;99.90;;;;;;5020024;28;20182;-55
2023/08/24 08:08:39;;;;;;;17.60;16.37;;;22.70;99.90;;;;;;5019939;28;20190;-55
2023/08/24 08:11:05;;;;;;;17.87;16.80;;;22.90;99.50;;;;;;5020237;28;20460;-54
2023/08/24 08:13:30;;;;;;;17.87;16.57;;;23.10;99.50;;;;;;5016785;28;20214;-51
2023/08/24 08:16:07;;;;;;;18.47;17.27;;;23.30;98.40;;;;;;5017965;28;20598;-53
2023/08/24 08:18:33;;;;;;;17.20;16.20;;;23.50;98.80;;;;;;5018514;28;20704;-54
2023/08/24 08:20:59;;;;;;;16.20;15.40;;;23.70;98.40;;;;;;5019979;28;20413;-56
2023/08/24 08:23:25;;;;;;;17.50;16.40;;;23.80;97.90;;;;;;5019514;28;20578;-48
2023/08/24 08:25:51;;;;;;;16.87;15.97;;;24.00;97.50;;;;;;5019854;28;20462;-54
2023/08/24 08:28:20;;;;;;;18.43;17.43;;;24.10;97.70;;;;;;5020099;28;20193;-54
2023/08/24 08:30:49;;;;;;;17.60;16.30;;;24.20;97.50;;;;;;5019138;28;20324;-52
2023/08/24 08:33:14;;;;;;;16.83;15.93;;;24.50;96.60;;;;;;5017667;28;20508;-57
2023/08/24 08:35:41;;;;;;;16.60;15.57;;;24.70;94.70;;;;;;5018839;28;20447;-55
2023/08/24 08:38:07;;;;;;;16.33;15.40;;;25.00;94.50;;;;;;5019482;28;20261;-51
2023/08/24 08:40:37;;;;;;;16.50;15.60;;;25.30;92.70;;;;;;5019553;28;20508;-56
2023/08/24 08:43:03;;;;;;;19.27;17.97;;;25.60;91.50;;;;;;5019053;28;20218;-52
2023/08/24 08:45:29;;;;;;;16.97;16.07;;;25.80;91.60;;;;;;5019629;28;20463;-57
2023/08/24 08:48:00;;;;;;;17.00;16.20;;;26.10;89.90;;;;;;5019512;28;20531;-51
2023/08/24 08:50:26;;;;;;;16.83;16.03;;;26.60;84.70;;;;;;5018812;28;20557;-53
2023/08/24 08:52:51;;;;;;;15.30;14.40;;;27.00;82.20;;;;;;5018720;28;21010;-52
2023/08/24 08:55:18;;;;;;;14.00;13.30;;;27.40;75.30;;;;;;5019183;28;20515;-55
2023/08/24 08:57:48;;;;;;;15.20;14.30;;;27.80;69.00;;;;;;5019441;28;20669;-54
2023/08/24 09:00:16;;;;;;;13.87;13.17;;;28.10;64.20;;;;;;5020064;28;20757;-55
2023/08/24 09:02:45;;;;;;;13.87;13.27;;;28.50;63.30;;;;;;5019598;28;20444;-53
2023/08/24 09:05:12;;;;;;;14.50;13.60;;;29.00;55.60;;;;;;5019935;28;20844;-52
2023/08/24 09:07:40;;;;;;;15.17;14.37;;;29.80;52.70;;;;;;5019787;28;20533;-53
2023/08/24 09:10:07;;;;;;;14.70;14.00;;;30.50;50.80;;;;;;5019233;28;20449;-54
2023/08/24 09:12:33;;;;;;;13.30;12.70;;;31.00;48.80;;;;;;5019504;28;20799;-51
2023/08/24 09:14:59;;;;;;;14.30;13.50;;;31.70;44.00;;;;;;5019501;28;20964;-55
2023/08/24 09:17:24;;;;;;;14.33;13.63;;;31.90;43.40;;;;;;5019702;28;20504;-54
2023/08/24 09:19:54;;;;;;;14.07;13.37;;;32.40;43.20;;;;;;5019730;28;20273;-54
2023/08/24 09:22:19;;;;;;;14.40;13.70;;;33.00;39.50;;;;;;5018671;28;20205;-54
2023/08/24 09:24:49;;;;;;;13.70;13.10;;;33.30;37.70;;;;;;5019225;28;20844;-54
2023/08/24 09:27:17;;;;;;;13.17;12.57;;;33.90;34.70;;;;;;5017530;28;20186;-56
2023/08/24 09:29:47;;;;;;;13.10;12.43;;;34.30;32.60;;;;;;5017847;28;20425;-52
2023/08/24 09:32:13;;;;;;;13.93;13.33;;;34.80;31.60;;;;;;5020589;28;20535;-53
2023/08/24 09:34:38;;;;;;;14.30;13.60;;;35.10;29.30;;;;;;5020915;28;20518;-53
2023/08/24 09:37:11;;;;;;;13.27;12.67;;;35.60;28.50;;;;;;5021439;28;20199;-56
2023/08/24 09:39:37;;;;;;;13.77;13.17;;;36.10;26.20;;;;;;5022222;28;20186;-56
2023/08/24 09:42:03;;;;;;;12.40;11.87;;;36.40;26.30;;;;;;5022230;28;20436;-56
2023/08/24 09:44:29;;;;;;;13.40;12.80;;;36.80;25.30;;;;;;5021439;28;20452;-55
2023/08/24 09:46:54;;;;;;;13.83;13.13;;;36.90;24.50;;;;;;5022081;28;20424;-51
2023/08/24 09:49:21;;;;;;;12.80;12.20;;;37.10;24.50;;;;;;5021772;28;20191;-54
2023/08/24 09:51:47;;;;;;;12.93;12.33;;;37.50;23.20;;;;;;5021977;28;20193;-53
2023/08/24 09:54:16;;;;;;;13.17;12.57;;;37.90;22.50;;;;;;5021255;28;20461;-53
2023/08/24 09:56:43;;;;;;;12.67;12.10;;;38.00;22.50;;;;;;5022455;28;20413;-54
2023/08/24 09:59:21;;;;;;;13.40;12.70;;;38.50;20.60;;;;;;5022380;28;20443;-55
2023/08/24 10:01:48;;;;;;;13.10;12.50;;;38.60;20.00;;;;;;5021033;28;20766;-53
2023/08/24 10:04:25;;;;;;;13.77;13.07;;;38.80;19.20;;;;;;5021537;28;20437;-55
2023/08/24 10:07:11;;;;;;;13.67;13.07;;;39.00;18.90;;;;;;5022219;28;20409;-52
2023/08/24 10:09:47;;;;;;;13.60;12.93;;;39.00;19.00;;;;;;5021496;28;20445;-54
2023/08/24 10:12:14;;;;;;;13.87;13.03;;;38.30;20.10;;;;;;5022047;28;20428;-56
2023/08/24 10:14:59;;;;;;;12.20;11.67;;;37.90;19.10;;;;;;5021068;28;20469;-55
2023/08/24 10:17:25;;;;;;;13.73;13.03;;;37.50;18.70;;;;;;5021136;28;21334;-55
2023/08/24 10:19:53;;;;;;;13.53;12.90;;;37.10;19.50;;;;;;5020670;28;20429;-54
2023/08/24 10:22:20;;;;;;;14.20;13.30;;;36.90;19.90;;;;;;5022255;28;20456;-56
2023/08/24 10:24:48;;;;;;;13.73;13.13;;;36.80;20.40;;;;;;5022506;28;20487;-54
2023/08/24 10:27:14;;;;;;;13.43;12.83;;;36.40;22.30;;;;;;5021640;28;20448;-55
2023/08/24 10:29:40;;;;;;;13.40;12.80;;;36.30;22.20;;;;;;5020464;28;20456;-56
2023/08/24 10:32:08;;;;;;;12.77;12.17;;;36.40;22.60;;;;;;5021935;28;20413;-55
2023/08/24 10:34:33;;;;;;;13.57;12.80;;;36.40;21.90;;;;;;5021801;28;20240;-56
2023/08/24 10:37:10;;;;;;;13.10;12.50;;;36.20;22.40;;;;;;5021529;28;21156;-56
2023/08/24 10:39:38;;;;;;;13.03;12.43;;;36.20;21.30;;;;;;5022298;28;20182;-50
2023/08/24 10:42:04;;;;;;;14.10;13.50;;;35.90;21.60;;;;;;5020730;28;20417;-54
2023/08/24 10:44:37;;;;;;;13.40;12.80;;;35.50;22.60;;;;;;5020306;28;21128;-51
2023/08/24 10:47:14;;;;;;;13.67;12.97;;;35.40;24.60;;;;;;5018721;28;20888;-55
2023/08/24 10:49:45;;;;;;;13.60;12.80;;;35.20;25.10;;;;;;5019546;28;20994;-56
2023/08/24 10:52:24;;;;;;;14.07;13.10;;;35.10;24.50;;;;;;5019750;28;20507;-55
2023/08/24 10:54:52;;;;;;;13.10;12.50;;;35.10;23.10;;;;;;5019782;28;20519;-54
2023/08/24 10:57:21;;;;;;;13.17;12.57;;;35.20;24.10;;;;;;5019905;28;20501;-47
2023/08/24 11:00:05;;;;;;;13.63;12.93;;;35.40;22.70;;;;;;5020183;28;20417;-54
2023/08/24 11:02:51;;;;;;;13.57;12.97;;;35.40;22.20;;;;;;5021185;28;20439;-54
2023/08/24 11:05:24;;;;;;;14.23;13.33;;;35.80;22.30;;;;;;5020953;28;20555;-51
2023/08/24 11:08:00;;;;;;;14.30;13.50;;;35.70;21.70;;;;;;5021667;28;20551;-55
2023/08/24 11:10:46;;;;;;;13.90;13.00;;;35.80;22.40;;;;;;5021322;28;20507;-52
2023/08/24 11:13:19;;;;;;;14.20;13.50;;;35.40;23.00;;;;;;5020959;28;21157;-54
2023/08/24 11:15:58;;;;;;;14.37;13.57;;;34.90;23.10;;;;;;5021726;28;20429;-46
2023/08/24 11:18:28;;;;;;;13.17;12.57;;;34.60;24.60;;;;;;5021160;28;20970;-50
2023/08/24 11:20:56;;;;;;;13.00;12.40;;;34.30;24.50;;;;;;5021100;28;20439;-53
2023/08/24 11:23:23;;;;;;;14.30;13.60;;;33.80;25.10;;;;;;5021034;28;20476;-55
2023/08/24 11:25:54;;;;;;;13.90;13.20;;;33.70;26.30;;;;;;5021213;28;20425;-55
2023/08/24 11:28:22;;;;;;;13.30;12.70;;;33.60;27.00;;;;;;5020787;28;20919;-52
2023/08/24 11:30:48;;;;;;;13.73;13.13;;;33.60;26.70;;;;;;5021045;28;20942;-52
2023/08/24 11:33:14;;;;;;;12.93;12.33;;;33.70;26.30;;;;;;5021306;28;20468;-56
2023/08/24 11:35:44;;;;;;;13.50;12.67;;;33.80;25.80;;;;;;5021094;28;20532;-55
2023/08/24 11:38:11;;;;;;;13.10;12.50;;;33.80;24.50;;;;;;5021048;28;20429;-55
2023/08/24 11:40:37;;;;;;;14.33;13.73;;;33.60;24.40;;;;;;5020249;28;20899;-55
2023/08/24 11:43:03;;;;;;;13.30;12.60;;;34.00;24.50;;;;;;5021103;28;20426;-54
2023/08/24 11:45:33;;;;;;;13.50;12.90;;;34.40;24.30;;;;;;5021152;28;20444;-53
2023/08/24 11:48:02;;;;;;;13.37;12.63;;;35.00;25.20;;;;;;5020790;28;20424;-55
2023/08/24 11:50:28;;;;;;;13.57;12.87;;;35.60;25.40;;;;;;5020972;28;20852;-53
2023/08/24 11:52:54;;;;;;;12.70;12.03;;;36.00;23.30;;;;;;5020950;28;20449;-55
2023/08/24 11:55:24;;;;;;;13.30;12.67;;;36.30;22.60;;;;;;5019964;28;20472;-55
2023/08/24 11:57:50;;;;;;;13.37;12.70;;;36.50;23.30;;;;;;5020530;28;20240;-53
2023/08/24 12:00:19;;;;;;;13.73;13.03;;;36.70;22.50;;;;;;5020716;28;20417;-55
2023/08/24 12:02:46;;;;;;;12.20;11.50;;;36.70;21.70;;;;;;5020678;28;20654;-53
2023/08/24 12:05:22;;;;;;;12.73;12.13;;;36.40;22.50;;;;;;5020627;28;20981;-55
2023/08/24 12:07:48;;;;;;;14.53;13.77;;;36.00;23.00;;;;;;5020663;28;20911;-54
2023/08/24 12:10:13;;;;;;;14.13;13.43;;;35.70;23.90;;;;;;5019793;28;20455;-50
2023/08/24 12:12:39;;;;;;;14.20;13.50;;;35.50;24.60;;;;;;5020659;28;20574;-56
2023/08/24 12:15:05;;;;;;;12.90;12.20;;;35.30;25.10;;;;;;5020406;28;20234;-56
2023/08/24 12:17:42;;;;;;;13.70;12.90;;;35.10;24.80;;;;;;5019972;28;20179;-54
2023/08/24 12:20:15;;;;;;;13.30;12.70;;;34.90;24.70;;;;;;5020541;28;20975;-55
2023/08/24 12:22:41;;;;;;;13.37;12.57;;;34.70;26.00;;;;;;5020109;28;20413;-55
2023/08/24 12:25:07;;;;;;;14.27;13.57;;;34.40;26.30;;;;;;5020512;28;20440;-56
2023/08/24 12:27:33;;;;;;;14.30;13.57;;;34.20;26.40;;;;;;5020490;28;20671;-53
2023/08/24 12:30:02;;;;;;;14.40;13.60;;;33.90;25.90;;;;;;5020003;28;20445;-56